sensor_id;sensor_type;location;lat;lon;timestamp;P1;durP1;ratioP1;P2;durP2;ratioP2
12476;SDS011;6303;51.504;6.300;2022-07-29T00:00:56;2.17;;;2.08;;
12476;SDS011;6303;51.504;6.300;2022-07-29T00:03:23;1.98;;;1.88;;
12476;SDS011;6303;51.504;6.300;2022-07-29T00:05:50;2.05;;;1.95;;
12476;SDS011;6303;51.504;6.300;2022-07-29T00:08:19;2.00;;;1.80;;
12476;SDS011;6303;51.504;6.300;2022-07-29T00:10:46;1.73;;;1.65;;
12476;SDS011;6303;51.504;6.300;2022-07-29T00:13:13;1.90;;;1.80;;
12476;SDS011;6303;51.504;6.300;2022-07-29T00:15:41;1.90;;;1.80;;
12476;SDS011;6303;51.504;6.300;2022-07-29T00:18:08;2.10;;;2.00;;
12476;SDS011;6303;51.504;6.300;2022-07-29T00:20:35;2.17;;;2.08;;
12476;SDS011;6303;51.504;6.300;2022-07-29T00:23:02;2.13;;;1.92;;
12476;SDS011;6303;51.504;6.300;2022-07-29T00:25:30;1.90;;;1.77;;
12476;SDS011;6303;51.504;6.300;2022-07-29T00:27:57;1.92;;;1.83;;
12476;SDS011;6303;51.504;6.300;2022-07-29T00:30:24;1.90;;;1.80;;
12476;SDS011;6303;51.504;6.300;2022-07-29T00:32:51;1.77;;;1.70;;
12476;SDS011;6303;51.504;6.300;2022-07-29T00:35:18;1.95;;;1.85;;
12476;SDS011;6303;51.504;6.300;2022-07-29T00:38:03;2.03;;;1.80;;
12476;SDS011;6303;51.504;6.300;2022-07-29T00:40:31;2.08;;;1.80;;
12476;SDS011;6303;51.504;6.300;2022-07-29T00:42:58;2.50;;;1.90;;
12476;SDS011;6303;51.504;6.300;2022-07-29T00:45:26;2.03;;;1.80;;
12476;SDS011;6303;51.504;6.300;2022-07-29T00:47:55;1.90;;;1.80;;
12476;SDS011;6303;51.504;6.300;2022-07-29T00:50:22;1.98;;;1.88;;
12476;SDS011;6303;51.504;6.300;2022-07-29T00:52:49;2.00;;;1.90;;
12476;SDS011;6303;51.504;6.300;2022-07-29T00:55:18;2.20;;;2.00;;
12476;SDS011;6303;51.504;6.300;2022-07-29T00:57:46;2.13;;;1.83;;
12476;SDS011;6303;51.504;6.300;2022-07-29T01:00:14;1.80;;;1.70;;
12476;SDS011;6303;51.504;6.300;2022-07-29T01:02:43;2.63;;;2.05;;
12476;SDS011;6303;51.504;6.300;2022-07-29T01:05:13;1.88;;;1.77;;
12476;SDS011;6303;51.504;6.300;2022-07-29T01:07:42;2.20;;;2.00;;
12476;SDS011;6303;51.504;6.300;2022-07-29T01:10:11;2.60;;;2.00;;
12476;SDS011;6303;51.504;6.300;2022-07-29T01:12:40;2.10;;;2.00;;
12476;SDS011;6303;51.504;6.300;2022-07-29T01:15:11;1.90;;;1.80;;
12476;SDS011;6303;51.504;6.300;2022-07-29T01:17:40;1.80;;;1.70;;
12476;SDS011;6303;51.504;6.300;2022-07-29T01:20:12;1.92;;;1.80;;
12476;SDS011;6303;51.504;6.300;2022-07-29T01:22:54;2.30;;;1.88;;
12476;SDS011;6303;51.504;6.300;2022-07-29T01:25:40;2.47;;;1.75;;
12476;SDS011;6303;51.504;6.300;2022-07-29T01:28:29;1.80;;;1.70;;
12476;SDS011;6303;51.504;6.300;2022-07-29T01:31:12;1.90;;;1.80;;
12476;SDS011;6303;51.504;6.300;2022-07-29T01:33:45;2.20;;;2.00;;
12476;SDS011;6303;51.504;6.300;2022-07-29T01:36:17;4.68;;;2.00;;
12476;SDS011;6303;51.504;6.300;2022-07-29T01:38:57;1.98;;;1.63;;
12476;SDS011;6303;51.504;6.300;2022-07-29T01:41:31;2.03;;;1.80;;
12476;SDS011;6303;51.504;6.300;2022-07-29T01:44:04;2.13;;;2.03;;
12476;SDS011;6303;51.504;6.300;2022-07-29T01:46:38;2.97;;;2.00;;
12476;SDS011;6303;51.504;6.300;2022-07-29T01:49:11;2.58;;;1.80;;
12476;SDS011;6303;51.504;6.300;2022-07-29T01:51:43;2.83;;;1.90;;
12476;SDS011;6303;51.504;6.300;2022-07-29T01:54:14;2.00;;;1.80;;
12476;SDS011;6303;51.504;6.300;2022-07-29T01:56:47;2.15;;;1.90;;
12476;SDS011;6303;51.504;6.300;2022-07-29T01:59:18;2.30;;;2.10;;
12476;SDS011;6303;51.504;6.300;2022-07-29T02:01:48;2.08;;;1.88;;
12476;SDS011;6303;51.504;6.300;2022-07-29T02:04:19;3.33;;;2.03;;
12476;SDS011;6303;51.504;6.300;2022-07-29T02:06:47;3.20;;;1.90;;
12476;SDS011;6303;51.504;6.300;2022-07-29T02:09:17;2.22;;;2.03;;
12476;SDS011;6303;51.504;6.300;2022-07-29T02:11:47;3.28;;;2.17;;
12476;SDS011;6303;51.504;6.300;2022-07-29T02:14:20;2.53;;;1.90;;
12476;SDS011;6303;51.504;6.300;2022-07-29T02:16:50;2.17;;;1.98;;
12476;SDS011;6303;51.504;6.300;2022-07-29T02:19:19;2.20;;;2.00;;
12476;SDS011;6303;51.504;6.300;2022-07-29T02:21:50;3.70;;;1.92;;
12476;SDS011;6303;51.504;6.300;2022-07-29T02:24:20;2.90;;;1.90;;
12476;SDS011;6303;51.504;6.300;2022-07-29T02:26:49;4.82;;;1.90;;
12476;SDS011;6303;51.504;6.300;2022-07-29T02:29:19;2.67;;;1.70;;
12476;SDS011;6303;51.504;6.300;2022-07-29T02:31:49;2.33;;;1.90;;
12476;SDS011;6303;51.504;6.300;2022-07-29T02:34:18;2.17;;;1.85;;
12476;SDS011;6303;51.504;6.300;2022-07-29T02:36:47;1.95;;;1.80;;
12476;SDS011;6303;51.504;6.300;2022-07-29T02:39:15;2.72;;;2.30;;
12476;SDS011;6303;51.504;6.300;2022-07-29T02:41:44;4.28;;;2.00;;
12476;SDS011;6303;51.504;6.300;2022-07-29T02:44:13;4.57;;;2.00;;
12476;SDS011;6303;51.504;6.300;2022-07-29T02:46:45;5.85;;;2.17;;
12476;SDS011;6303;51.504;6.300;2022-07-29T02:49:16;3.65;;;2.17;;
12476;SDS011;6303;51.504;6.300;2022-07-29T02:51:51;2.47;;;1.95;;
12476;SDS011;6303;51.504;6.300;2022-07-29T02:54:26;2.05;;;1.83;;
12476;SDS011;6303;51.504;6.300;2022-07-29T02:57:01;4.43;;;2.00;;
12476;SDS011;6303;51.504;6.300;2022-07-29T02:59:32;4.15;;;2.15;;
12476;SDS011;6303;51.504;6.300;2022-07-29T03:02:04;3.60;;;2.22;;
12476;SDS011;6303;51.504;6.300;2022-07-29T03:04:32;3.42;;;2.30;;
12476;SDS011;6303;51.504;6.300;2022-07-29T03:07:01;5.18;;;2.10;;
12476;SDS011;6303;51.504;6.300;2022-07-29T03:09:29;4.63;;;2.22;;
12476;SDS011;6303;51.504;6.300;2022-07-29T03:11:57;4.40;;;2.10;;
12476;SDS011;6303;51.504;6.300;2022-07-29T03:14:26;2.58;;;2.00;;
12476;SDS011;6303;51.504;6.300;2022-07-29T03:16:53;3.85;;;2.17;;
12476;SDS011;6303;51.504;6.300;2022-07-29T03:19:22;2.97;;;1.90;;
12476;SDS011;6303;51.504;6.300;2022-07-29T03:21:49;2.72;;;2.10;;
12476;SDS011;6303;51.504;6.300;2022-07-29T03:24:25;3.05;;;1.90;;
12476;SDS011;6303;51.504;6.300;2022-07-29T03:26:54;3.80;;;2.20;;
12476;SDS011;6303;51.504;6.300;2022-07-29T03:29:22;2.83;;;2.10;;
12476;SDS011;6303;51.504;6.300;2022-07-29T03:31:50;2.25;;;1.80;;
12476;SDS011;6303;51.504;6.300;2022-07-29T03:34:17;2.00;;;1.90;;
12476;SDS011;6303;51.504;6.300;2022-07-29T03:36:45;2.10;;;1.90;;
12476;SDS011;6303;51.504;6.300;2022-07-29T03:39:13;1.95;;;1.70;;
12476;SDS011;6303;51.504;6.300;2022-07-29T03:41:44;2.20;;;2.00;;
12476;SDS011;6303;51.504;6.300;2022-07-29T03:44:13;2.08;;;1.88;;
12476;SDS011;6303;51.504;6.300;2022-07-29T03:46:43;2.65;;;1.90;;
12476;SDS011;6303;51.504;6.300;2022-07-29T03:49:12;2.25;;;1.88;;
12476;SDS011;6303;51.504;6.300;2022-07-29T03:51:42;2.03;;;1.90;;
12476;SDS011;6303;51.504;6.300;2022-07-29T03:54:11;2.33;;;1.80;;
12476;SDS011;6303;51.504;6.300;2022-07-29T03:56:39;2.47;;;1.90;;
12476;SDS011;6303;51.504;6.300;2022-07-29T03:59:11;2.17;;;1.85;;
12476;SDS011;6303;51.504;6.300;2022-07-29T04:01:40;2.20;;;1.90;;
12476;SDS011;6303;51.504;6.300;2022-07-29T04:04:08;2.72;;;1.95;;
12476;SDS011;6303;51.504;6.300;2022-07-29T04:06:39;2.92;;;1.85;;
12476;SDS011;6303;51.504;6.300;2022-07-29T04:09:06;2.05;;;1.85;;
12476;SDS011;6303;51.504;6.300;2022-07-29T04:11:35;2.03;;;1.92;;
12476;SDS011;6303;51.504;6.300;2022-07-29T04:14:04;2.80;;;1.90;;
12476;SDS011;6303;51.504;6.300;2022-07-29T04:16:31;4.90;;;1.98;;
12476;SDS011;6303;51.504;6.300;2022-07-29T04:18:58;2.85;;;1.85;;
12476;SDS011;6303;51.504;6.300;2022-07-29T04:21:25;3.03;;;2.53;;
12476;SDS011;6303;51.504;6.300;2022-07-29T04:23:52;2.42;;;1.90;;
12476;SDS011;6303;51.504;6.300;2022-07-29T04:26:20;2.47;;;1.77;;
12476;SDS011;6303;51.504;6.300;2022-07-29T04:28:48;2.75;;;2.00;;
12476;SDS011;6303;51.504;6.300;2022-07-29T04:31:15;2.83;;;1.90;;
12476;SDS011;6303;51.504;6.300;2022-07-29T04:33:42;3.58;;;2.10;;
12476;SDS011;6303;51.504;6.300;2022-07-29T04:36:09;2.80;;;2.00;;
12476;SDS011;6303;51.504;6.300;2022-07-29T04:38:37;4.35;;;2.10;;
12476;SDS011;6303;51.504;6.300;2022-07-29T04:41:05;4.00;;;1.92;;
12476;SDS011;6303;51.504;6.300;2022-07-29T04:43:33;2.83;;;2.25;;
12476;SDS011;6303;51.504;6.300;2022-07-29T04:46:02;2.17;;;1.98;;
12476;SDS011;6303;51.504;6.300;2022-07-29T04:48:30;2.10;;;1.90;;
12476;SDS011;6303;51.504;6.300;2022-07-29T04:50:57;1.92;;;1.80;;
12476;SDS011;6303;51.504;6.300;2022-07-29T04:53:24;3.90;;;2.10;;
12476;SDS011;6303;51.504;6.300;2022-07-29T04:55:51;2.38;;;1.98;;
12476;SDS011;6303;51.504;6.300;2022-07-29T04:58:18;2.22;;;1.80;;
12476;SDS011;6303;51.504;6.300;2022-07-29T05:00:45;2.35;;;1.88;;
12476;SDS011;6303;51.504;6.300;2022-07-29T05:03:13;2.33;;;2.13;;
12476;SDS011;6303;51.504;6.300;2022-07-29T05:05:40;2.30;;;2.08;;
12476;SDS011;6303;51.504;6.300;2022-07-29T05:08:07;3.55;;;2.20;;
12476;SDS011;6303;51.504;6.300;2022-07-29T05:10:34;2.28;;;2.00;;
12476;SDS011;6303;51.504;6.300;2022-07-29T05:13:03;2.53;;;2.00;;
12476;SDS011;6303;51.504;6.300;2022-07-29T05:15:31;2.22;;;1.90;;
12476;SDS011;6303;51.504;6.300;2022-07-29T05:17:59;2.08;;;1.95;;
12476;SDS011;6303;51.504;6.300;2022-07-29T05:20:28;2.88;;;1.92;;
12476;SDS011;6303;51.504;6.300;2022-07-29T05:22:55;2.15;;;2.03;;
12476;SDS011;6303;51.504;6.300;2022-07-29T05:25:23;2.13;;;1.90;;
12476;SDS011;6303;51.504;6.300;2022-07-29T05:27:50;2.17;;;2.00;;
12476;SDS011;6303;51.504;6.300;2022-07-29T05:30:17;2.17;;;1.98;;
12476;SDS011;6303;51.504;6.300;2022-07-29T05:32:45;1.92;;;1.70;;
12476;SDS011;6303;51.504;6.300;2022-07-29T05:35:12;3.05;;;1.90;;
12476;SDS011;6303;51.504;6.300;2022-07-29T05:37:41;4.85;;;2.25;;
12476;SDS011;6303;51.504;6.300;2022-07-29T05:40:09;4.13;;;2.05;;
12476;SDS011;6303;51.504;6.300;2022-07-29T05:42:36;2.72;;;1.80;;
12476;SDS011;6303;51.504;6.300;2022-07-29T05:45:04;4.80;;;2.22;;
12476;SDS011;6303;51.504;6.300;2022-07-29T05:47:31;4.47;;;2.20;;
12476;SDS011;6303;51.504;6.300;2022-07-29T05:49:58;2.15;;;1.95;;
12476;SDS011;6303;51.504;6.300;2022-07-29T05:52:25;4.18;;;1.90;;
12476;SDS011;6303;51.504;6.300;2022-07-29T05:54:54;2.45;;;2.00;;
12476;SDS011;6303;51.504;6.300;2022-07-29T05:57:23;3.13;;;2.10;;
12476;SDS011;6303;51.504;6.300;2022-07-29T05:59:50;2.78;;;2.03;;
12476;SDS011;6303;51.504;6.300;2022-07-29T06:02:18;3.47;;;2.13;;
12476;SDS011;6303;51.504;6.300;2022-07-29T06:04:45;1.98;;;1.85;;
12476;SDS011;6303;51.504;6.300;2022-07-29T06:07:12;2.55;;;2.00;;
12476;SDS011;6303;51.504;6.300;2022-07-29T06:09:39;3.15;;;2.10;;
12476;SDS011;6303;51.504;6.300;2022-07-29T06:12:08;2.15;;;1.90;;
12476;SDS011;6303;51.504;6.300;2022-07-29T06:14:35;3.28;;;2.00;;
12476;SDS011;6303;51.504;6.300;2022-07-29T06:17:03;2.05;;;1.90;;
12476;SDS011;6303;51.504;6.300;2022-07-29T06:19:30;2.03;;;1.90;;
12476;SDS011;6303;51.504;6.300;2022-07-29T06:21:57;2.60;;;1.90;;
12476;SDS011;6303;51.504;6.300;2022-07-29T06:24:24;2.30;;;2.13;;
12476;SDS011;6303;51.504;6.300;2022-07-29T06:26:52;2.28;;;2.00;;
12476;SDS011;6303;51.504;6.300;2022-07-29T06:29:20;2.20;;;2.00;;
12476;SDS011;6303;51.504;6.300;2022-07-29T06:31:47;5.72;;;2.40;;
12476;SDS011;6303;51.504;6.300;2022-07-29T06:34:14;3.80;;;2.10;;
12476;SDS011;6303;51.504;6.300;2022-07-29T06:36:41;2.83;;;2.20;;
12476;SDS011;6303;51.504;6.300;2022-07-29T06:39:08;2.88;;;2.00;;
12476;SDS011;6303;51.504;6.300;2022-07-29T06:41:35;2.08;;;1.98;;
12476;SDS011;6303;51.504;6.300;2022-07-29T06:44:08;2.50;;;2.17;;
12476;SDS011;6303;51.504;6.300;2022-07-29T06:46:36;3.17;;;2.30;;
12476;SDS011;6303;51.504;6.300;2022-07-29T06:49:04;2.40;;;2.17;;
12476;SDS011;6303;51.504;6.300;2022-07-29T06:51:31;2.55;;;2.00;;
12476;SDS011;6303;51.504;6.300;2022-07-29T06:53:58;2.00;;;1.90;;
12476;SDS011;6303;51.504;6.300;2022-07-29T06:56:25;3.85;;;2.20;;
12476;SDS011;6303;51.504;6.300;2022-07-29T06:58:52;2.40;;;2.13;;
12476;SDS011;6303;51.504;6.300;2022-07-29T07:01:20;2.63;;;2.05;;
12476;SDS011;6303;51.504;6.300;2022-07-29T07:03:48;2.20;;;2.00;;
12476;SDS011;6303;51.504;6.300;2022-07-29T07:06:15;1.90;;;1.80;;
12476;SDS011;6303;51.504;6.300;2022-07-29T07:08:42;2.60;;;2.10;;
12476;SDS011;6303;51.504;6.300;2022-07-29T07:11:09;2.30;;;2.10;;
12476;SDS011;6303;51.504;6.300;2022-07-29T07:13:36;2.55;;;1.90;;
12476;SDS011;6303;51.504;6.300;2022-07-29T07:16:04;2.42;;;1.95;;
12476;SDS011;6303;51.504;6.300;2022-07-29T07:18:31;2.22;;;2.00;;
12476;SDS011;6303;51.504;6.300;2022-07-29T07:20:59;1.95;;;1.85;;
12476;SDS011;6303;51.504;6.300;2022-07-29T07:23:26;2.33;;;1.92;;
12476;SDS011;6303;51.504;6.300;2022-07-29T07:25:53;2.88;;;1.95;;
12476;SDS011;6303;51.504;6.300;2022-07-29T07:28:20;2.13;;;1.83;;
12476;SDS011;6303;51.504;6.300;2022-07-29T07:30:47;2.35;;;2.00;;
12476;SDS011;6303;51.504;6.300;2022-07-29T07:33:15;2.03;;;1.92;;
12476;SDS011;6303;51.504;6.300;2022-07-29T07:35:42;2.03;;;1.88;;
12476;SDS011;6303;51.504;6.300;2022-07-29T07:38:10;2.85;;;1.88;;
12476;SDS011;6303;51.504;6.300;2022-07-29T07:40:37;2.70;;;2.15;;
12476;SDS011;6303;51.504;6.300;2022-07-29T07:43:04;1.83;;;1.73;;
12476;SDS011;6303;51.504;6.300;2022-07-29T07:45:31;2.22;;;2.03;;
12476;SDS011;6303;51.504;6.300;2022-07-29T07:47:59;2.10;;;1.90;;
12476;SDS011;6303;51.504;6.300;2022-07-29T07:50:26;4.82;;;2.10;;
12476;SDS011;6303;51.504;6.300;2022-07-29T07:52:53;2.35;;;2.15;;
12476;SDS011;6303;51.504;6.300;2022-07-29T07:55:24;2.15;;;1.95;;
12476;SDS011;6303;51.504;6.300;2022-07-29T07:57:51;2.58;;;2.13;;
12476;SDS011;6303;51.504;6.300;2022-07-29T08:00:19;2.17;;;2.00;;
12476;SDS011;6303;51.504;6.300;2022-07-29T08:02:46;2.60;;;2.10;;
12476;SDS011;6303;51.504;6.300;2022-07-29T08:05:15;2.28;;;1.95;;
12476;SDS011;6303;51.504;6.300;2022-07-29T08:07:44;2.38;;;1.88;;
12476;SDS011;6303;51.504;6.300;2022-07-29T08:10:12;2.20;;;2.00;;
12476;SDS011;6303;51.504;6.300;2022-07-29T08:12:40;2.20;;;2.00;;
12476;SDS011;6303;51.504;6.300;2022-07-29T08:15:08;2.05;;;1.90;;
12476;SDS011;6303;51.504;6.300;2022-07-29T08:17:35;2.55;;;2.33;;
12476;SDS011;6303;51.504;6.300;2022-07-29T08:20:02;1.95;;;1.85;;
12476;SDS011;6303;51.504;6.300;2022-07-29T08:22:30;3.17;;;2.00;;
12476;SDS011;6303;51.504;6.300;2022-07-29T08:24:57;2.40;;;2.20;;
12476;SDS011;6303;51.504;6.300;2022-07-29T08:27:24;2.50;;;2.30;;
12476;SDS011;6303;51.504;6.300;2022-07-29T08:29:55;2.60;;;2.40;;
12476;SDS011;6303;51.504;6.300;2022-07-29T08:32:22;2.78;;;2.10;;
12476;SDS011;6303;51.504;6.300;2022-07-29T08:34:49;2.40;;;2.20;;
12476;SDS011;6303;51.504;6.300;2022-07-29T08:37:16;2.88;;;2.20;;
12476;SDS011;6303;51.504;6.300;2022-07-29T08:39:43;2.65;;;2.10;;
12476;SDS011;6303;51.504;6.300;2022-07-29T08:42:10;2.42;;;2.22;;
12476;SDS011;6303;51.504;6.300;2022-07-29T08:44:38;3.53;;;1.98;;
12476;SDS011;6303;51.504;6.300;2022-07-29T08:47:07;3.40;;;2.60;;
12476;SDS011;6303;51.504;6.300;2022-07-29T08:49:34;2.58;;;2.10;;
12476;SDS011;6303;51.504;6.300;2022-07-29T08:52:02;3.13;;;2.03;;
12476;SDS011;6303;51.504;6.300;2022-07-29T08:54:29;2.75;;;2.22;;
12476;SDS011;6303;51.504;6.300;2022-07-29T08:56:56;2.40;;;2.20;;
12476;SDS011;6303;51.504;6.300;2022-07-29T08:59:24;2.53;;;2.05;;
12476;SDS011;6303;51.504;6.300;2022-07-29T09:01:54;2.90;;;2.60;;
12476;SDS011;6303;51.504;6.300;2022-07-29T09:04:26;3.63;;;2.30;;
12476;SDS011;6303;51.504;6.300;2022-07-29T09:06:56;4.47;;;2.45;;
12476;SDS011;6303;51.504;6.300;2022-07-29T09:09:26;3.50;;;2.40;;
12476;SDS011;6303;51.504;6.300;2022-07-29T09:11:53;2.50;;;2.30;;
12476;SDS011;6303;51.504;6.300;2022-07-29T09:14:20;3.20;;;2.20;;
12476;SDS011;6303;51.504;6.300;2022-07-29T09:16:49;3.05;;;2.42;;
12476;SDS011;6303;51.504;6.300;2022-07-29T09:19:21;2.83;;;2.60;;
12476;SDS011;6303;51.504;6.300;2022-07-29T09:21:53;2.85;;;2.65;;
12476;SDS011;6303;51.504;6.300;2022-07-29T09:24:25;2.95;;;2.50;;
12476;SDS011;6303;51.504;6.300;2022-07-29T09:26:54;2.75;;;2.55;;
12476;SDS011;6303;51.504;6.300;2022-07-29T09:29:22;2.92;;;2.40;;
12476;SDS011;6303;51.504;6.300;2022-07-29T09:31:50;2.83;;;2.50;;
12476;SDS011;6303;51.504;6.300;2022-07-29T09:34:21;2.63;;;2.42;;
12476;SDS011;6303;51.504;6.300;2022-07-29T09:36:51;3.60;;;2.70;;
12476;SDS011;6303;51.504;6.300;2022-07-29T09:39:28;3.90;;;2.70;;
12476;SDS011;6303;51.504;6.300;2022-07-29T09:41:58;3.40;;;2.63;;
12476;SDS011;6303;51.504;6.300;2022-07-29T09:44:27;3.45;;;2.53;;
12476;SDS011;6303;51.504;6.300;2022-07-29T09:47:07;3.00;;;2.80;;
12476;SDS011;6303;51.504;6.300;2022-07-29T09:49:35;3.05;;;2.75;;
12476;SDS011;6303;51.504;6.300;2022-07-29T09:52:17;5.70;;;3.50;;
12476;SDS011;6303;51.504;6.300;2022-07-29T09:54:44;3.53;;;3.22;;
12476;SDS011;6303;51.504;6.300;2022-07-29T09:57:21;3.60;;;3.30;;
12476;SDS011;6303;51.504;6.300;2022-07-29T09:59:55;4.03;;;3.28;;
12476;SDS011;6303;51.504;6.300;2022-07-29T10:02:27;4.85;;;3.17;;
12476;SDS011;6303;51.504;6.300;2022-07-29T10:04:56;5.28;;;3.60;;
12476;SDS011;6303;51.504;6.300;2022-07-29T10:07:24;3.53;;;3.22;;
12476;SDS011;6303;51.504;6.300;2022-07-29T10:09:52;6.57;;;4.15;;
12476;SDS011;6303;51.504;6.300;2022-07-29T10:12:21;4.75;;;3.50;;
12476;SDS011;6303;51.504;6.300;2022-07-29T10:14:49;4.32;;;3.70;;
12476;SDS011;6303;51.504;6.300;2022-07-29T10:17:16;4.38;;;3.97;;
12476;SDS011;6303;51.504;6.300;2022-07-29T10:19:44;4.13;;;3.83;;
12476;SDS011;6303;51.504;6.300;2022-07-29T10:22:12;4.68;;;4.30;;
12476;SDS011;6303;51.504;6.300;2022-07-29T10:24:40;4.40;;;4.00;;
12476;SDS011;6303;51.504;6.300;2022-07-29T10:27:07;4.20;;;3.90;;
12476;SDS011;6303;51.504;6.300;2022-07-29T10:29:35;4.25;;;3.60;;
12476;SDS011;6303;51.504;6.300;2022-07-29T10:35:00;3.97;;;3.67;;
12476;SDS011;6303;51.504;6.300;2022-07-29T10:37:57;6.28;;;3.50;;
12476;SDS011;6303;51.504;6.300;2022-07-29T10:40:39;3.47;;;3.15;;
12476;SDS011;6303;51.504;6.300;2022-07-29T10:43:30;3.70;;;3.17;;
12476;SDS011;6303;51.504;6.300;2022-07-29T10:46:01;3.20;;;2.90;;
12476;SDS011;6303;51.504;6.300;2022-07-29T10:48:29;4.32;;;3.08;;
12476;SDS011;6303;51.504;6.300;2022-07-29T10:50:57;3.10;;;2.80;;
12476;SDS011;6303;51.504;6.300;2022-07-29T10:53:46;3.28;;;2.97;;
12476;SDS011;6303;51.504;6.300;2022-07-29T10:59:22;3.40;;;3.10;;
12476;SDS011;6303;51.504;6.300;2022-07-29T11:01:51;4.22;;;3.42;;
12476;SDS011;6303;51.504;6.300;2022-07-29T11:07:20;5.05;;;3.42;;
12476;SDS011;6303;51.504;6.300;2022-07-29T11:12:49;3.78;;;3.30;;
12476;SDS011;6303;51.504;6.300;2022-07-29T11:15:16;3.50;;;2.95;;
12476;SDS011;6303;51.504;6.300;2022-07-29T11:18:04;3.75;;;3.03;;
12476;SDS011;6303;51.504;6.300;2022-07-29T11:20:39;3.92;;;3.63;;
12476;SDS011;6303;51.504;6.300;2022-07-29T11:23:20;4.18;;;3.80;;
12476;SDS011;6303;51.504;6.300;2022-07-29T11:28:48;3.83;;;3.53;;
12476;SDS011;6303;51.504;6.300;2022-07-29T11:31:34;3.55;;;3.25;;
12476;SDS011;6303;51.504;6.300;2022-07-29T11:42:38;4.38;;;4.00;;
12476;SDS011;6303;51.504;6.300;2022-07-29T11:45:07;6.10;;;3.70;;
12476;SDS011;6303;51.504;6.300;2022-07-29T11:47:36;4.10;;;3.58;;
12476;SDS011;6303;51.504;6.300;2022-07-29T11:50:06;4.50;;;3.25;;
12476;SDS011;6303;51.504;6.300;2022-07-29T11:52:35;3.75;;;3.55;;
12476;SDS011;6303;51.504;6.300;2022-07-29T11:55:08;3.95;;;3.50;;
12476;SDS011;6303;51.504;6.300;2022-07-29T11:57:37;4.55;;;3.70;;
12476;SDS011;6303;51.504;6.300;2022-07-29T12:00:20;4.85;;;4.22;;
12476;SDS011;6303;51.504;6.300;2022-07-29T12:02:49;5.00;;;4.50;;
12476;SDS011;6303;51.504;6.300;2022-07-29T12:05:17;4.75;;;4.18;;
12476;SDS011;6303;51.504;6.300;2022-07-29T12:07:44;4.10;;;3.80;;
12476;SDS011;6303;51.504;6.300;2022-07-29T12:10:12;5.60;;;3.88;;
12476;SDS011;6303;51.504;6.300;2022-07-29T12:12:40;4.38;;;3.70;;
12476;SDS011;6303;51.504;6.300;2022-07-29T12:15:11;5.10;;;3.72;;
12476;SDS011;6303;51.504;6.300;2022-07-29T12:17:42;5.85;;;3.92;;
12476;SDS011;6303;51.504;6.300;2022-07-29T12:20:10;4.53;;;4.03;;
12476;SDS011;6303;51.504;6.300;2022-07-29T12:22:38;4.90;;;4.30;;
12476;SDS011;6303;51.504;6.300;2022-07-29T12:25:09;6.20;;;3.83;;
12476;SDS011;6303;51.504;6.300;2022-07-29T12:27:40;4.85;;;3.20;;
12476;SDS011;6303;51.504;6.300;2022-07-29T12:30:10;8.75;;;3.60;;
12476;SDS011;6303;51.504;6.300;2022-07-29T12:32:41;4.70;;;3.20;;
12476;SDS011;6303;51.504;6.300;2022-07-29T12:35:10;5.10;;;3.40;;
12476;SDS011;6303;51.504;6.300;2022-07-29T12:37:39;5.00;;;3.30;;
12476;SDS011;6303;51.504;6.300;2022-07-29T12:40:09;4.45;;;2.92;;
12476;SDS011;6303;51.504;6.300;2022-07-29T12:42:37;3.28;;;2.97;;
12476;SDS011;6303;51.504;6.300;2022-07-29T12:45:06;3.15;;;2.80;;
12476;SDS011;6303;51.504;6.300;2022-07-29T12:47:37;3.58;;;3.10;;
12476;SDS011;6303;51.504;6.300;2022-07-29T12:50:19;4.10;;;3.35;;
12476;SDS011;6303;51.504;6.300;2022-07-29T12:52:46;4.00;;;3.00;;
12476;SDS011;6303;51.504;6.300;2022-07-29T12:55:14;3.72;;;3.00;;
12476;SDS011;6303;51.504;6.300;2022-07-29T12:57:44;3.25;;;2.90;;
12476;SDS011;6303;51.504;6.300;2022-07-29T13:00:13;4.65;;;3.80;;
12476;SDS011;6303;51.504;6.300;2022-07-29T13:02:42;3.55;;;3.25;;
12476;SDS011;6303;51.504;6.300;2022-07-29T13:05:11;5.38;;;3.30;;
12476;SDS011;6303;51.504;6.300;2022-07-29T13:07:40;4.78;;;3.22;;
12476;SDS011;6303;51.504;6.300;2022-07-29T13:10:11;3.85;;;3.00;;
12476;SDS011;6303;51.504;6.300;2022-07-29T13:12:39;5.05;;;2.70;;
12476;SDS011;6303;51.504;6.300;2022-07-29T13:15:30;3.83;;;3.00;;
12476;SDS011;6303;51.504;6.300;2022-07-29T13:17:58;4.75;;;2.88;;
12476;SDS011;6303;51.504;6.300;2022-07-29T13:20:27;5.00;;;3.05;;
12476;SDS011;6303;51.504;6.300;2022-07-29T13:22:57;5.35;;;2.95;;
12476;SDS011;6303;51.504;6.300;2022-07-29T13:25:25;3.05;;;2.75;;
12476;SDS011;6303;51.504;6.300;2022-07-29T13:27:54;4.22;;;3.20;;
12476;SDS011;6303;51.504;6.300;2022-07-29T13:30:22;3.45;;;2.90;;
12476;SDS011;6303;51.504;6.300;2022-07-29T13:32:50;3.15;;;2.85;;
12476;SDS011;6303;51.504;6.300;2022-07-29T13:35:18;3.90;;;2.88;;
12476;SDS011;6303;51.504;6.300;2022-07-29T13:37:47;6.72;;;3.03;;
12476;SDS011;6303;51.504;6.300;2022-07-29T13:40:14;4.28;;;3.22;;
12476;SDS011;6303;51.504;6.300;2022-07-29T13:42:42;4.03;;;3.20;;
12476;SDS011;6303;51.504;6.300;2022-07-29T13:45:09;4.55;;;3.28;;
12476;SDS011;6303;51.504;6.300;2022-07-29T13:47:37;3.30;;;2.97;;
12476;SDS011;6303;51.504;6.300;2022-07-29T13:50:04;3.33;;;3.03;;
12476;SDS011;6303;51.504;6.300;2022-07-29T13:52:33;3.50;;;3.03;;
12476;SDS011;6303;51.504;6.300;2022-07-29T13:55:02;3.97;;;2.70;;
12476;SDS011;6303;51.504;6.300;2022-07-29T13:57:30;2.90;;;2.63;;
12476;SDS011;6303;51.504;6.300;2022-07-29T13:59:57;3.47;;;2.63;;
12476;SDS011;6303;51.504;6.300;2022-07-29T14:02:24;3.13;;;2.50;;
12476;SDS011;6303;51.504;6.300;2022-07-29T14:04:51;4.20;;;2.70;;
12476;SDS011;6303;51.504;6.300;2022-07-29T14:07:19;2.67;;;2.45;;
12476;SDS011;6303;51.504;6.300;2022-07-29T14:09:46;3.35;;;2.40;;
12476;SDS011;6303;51.504;6.300;2022-07-29T14:12:15;3.03;;;2.58;;
12476;SDS011;6303;51.504;6.300;2022-07-29T14:14:42;2.80;;;2.60;;
12476;SDS011;6303;51.504;6.300;2022-07-29T14:17:09;2.90;;;2.70;;
12476;SDS011;6303;51.504;6.300;2022-07-29T14:19:37;2.90;;;2.58;;
12476;SDS011;6303;51.504;6.300;2022-07-29T14:22:04;2.58;;;2.35;;
12476;SDS011;6303;51.504;6.300;2022-07-29T14:24:32;2.55;;;2.35;;
12476;SDS011;6303;51.504;6.300;2022-07-29T14:26:59;2.65;;;2.45;;
12476;SDS011;6303;51.504;6.300;2022-07-29T14:29:27;3.00;;;2.67;;
12476;SDS011;6303;51.504;6.300;2022-07-29T14:31:54;2.80;;;2.60;;
12476;SDS011;6303;51.504;6.300;2022-07-29T14:34:21;2.90;;;2.60;;
12476;SDS011;6303;51.504;6.300;2022-07-29T14:36:48;2.47;;;2.38;;
12476;SDS011;6303;51.504;6.300;2022-07-29T14:39:16;3.00;;;2.80;;
12476;SDS011;6303;51.504;6.300;2022-07-29T14:41:43;2.83;;;2.63;;
12476;SDS011;6303;51.504;6.300;2022-07-29T14:44:10;2.70;;;2.50;;
12476;SDS011;6303;51.504;6.300;2022-07-29T14:46:38;2.80;;;2.40;;
12476;SDS011;6303;51.504;6.300;2022-07-29T14:49:05;2.83;;;2.60;;
12476;SDS011;6303;51.504;6.300;2022-07-29T14:51:32;2.60;;;2.40;;
12476;SDS011;6303;51.504;6.300;2022-07-29T14:53:59;2.92;;;2.72;;
12476;SDS011;6303;51.504;6.300;2022-07-29T14:56:27;2.80;;;2.60;;
12476;SDS011;6303;51.504;6.300;2022-07-29T14:58:55;4.45;;;2.83;;
12476;SDS011;6303;51.504;6.300;2022-07-29T15:01:22;3.10;;;2.83;;
12476;SDS011;6303;51.504;6.300;2022-07-29T15:03:50;2.75;;;2.55;;
12476;SDS011;6303;51.504;6.300;2022-07-29T15:06:18;4.88;;;2.80;;
12476;SDS011;6303;51.504;6.300;2022-07-29T15:08:45;5.03;;;2.83;;
12476;SDS011;6303;51.504;6.300;2022-07-29T15:11:12;9.25;;;2.97;;
12476;SDS011;6303;51.504;6.300;2022-07-29T15:13:39;7.72;;;3.13;;
12476;SDS011;6303;51.504;6.300;2022-07-29T15:16:06;6.78;;;2.78;;
12476;SDS011;6303;51.504;6.300;2022-07-29T15:18:35;5.55;;;2.83;;
12476;SDS011;6303;51.504;6.300;2022-07-29T15:21:04;6.60;;;2.97;;
12476;SDS011;6303;51.504;6.300;2022-07-29T15:23:32;6.28;;;3.13;;
12476;SDS011;6303;51.504;6.300;2022-07-29T15:26:01;5.05;;;2.90;;
12476;SDS011;6303;51.504;6.300;2022-07-29T15:28:28;3.88;;;2.97;;
12476;SDS011;6303;51.504;6.300;2022-07-29T15:30:55;6.30;;;3.40;;
12476;SDS011;6303;51.504;6.300;2022-07-29T15:33:22;6.18;;;3.28;;
12476;SDS011;6303;51.504;6.300;2022-07-29T15:35:49;6.03;;;2.92;;